sensor_id;sensor_type;location;lat;lon;timestamp;P1;durP1;ratioP1;P2;durP2;ratioP2
75152;SDS011;63734;45.218;36.708;2022-11-20T00:01:12;7.47;;;5.22;;
75152;SDS011;63734;45.218;36.708;2022-11-20T00:03:39;9.30;;;5.28;;
75152;SDS011;63734;45.218;36.708;2022-11-20T00:06:07;11.60;;;5.90;;
75152;SDS011;63734;45.218;36.708;2022-11-20T00:08:34;9.43;;;5.57;;
75152;SDS011;63734;45.218;36.708;2022-11-20T00:13:34;6.65;;;4.32;;
75152;SDS011;63734;45.218;36.708;2022-11-20T00:16:01;10.95;;;4.18;;
75152;SDS011;63734;45.218;36.708;2022-11-20T00:18:29;12.02;;;5.35;;
75152;SDS011;63734;45.218;36.708;2022-11-20T00:21:10;5.30;;;3.88;;
75152;SDS011;63734;45.218;36.708;2022-11-20T00:23:38;6.75;;;3.95;;
75152;SDS011;63734;45.218;36.708;2022-11-20T00:26:04;10.07;;;4.47;;
75152;SDS011;63734;45.218;36.708;2022-11-20T00:28:31;5.05;;;3.47;;
75152;SDS011;63734;45.218;36.708;2022-11-20T00:31:04;7.97;;;4.60;;
75152;SDS011;63734;45.218;36.708;2022-11-20T00:33:35;8.10;;;3.55;;
75152;SDS011;63734;45.218;36.708;2022-11-20T00:36:08;8.88;;;4.95;;
75152;SDS011;63734;45.218;36.708;2022-11-20T00:38:36;5.07;;;3.00;;
75152;SDS011;63734;45.218;36.708;2022-11-20T00:41:06;9.02;;;5.50;;
75152;SDS011;63734;45.218;36.708;2022-11-20T00:43:34;6.70;;;4.15;;
75152;SDS011;63734;45.218;36.708;2022-11-20T00:46:05;5.22;;;3.88;;
75152;SDS011;63734;45.218;36.708;2022-11-20T00:48:32;9.95;;;4.60;;
75152;SDS011;63734;45.218;36.708;2022-11-20T00:50:58;4.47;;;3.17;;
75152;SDS011;63734;45.218;36.708;2022-11-20T00:53:24;6.55;;;4.43;;
75152;SDS011;63734;45.218;36.708;2022-11-20T00:58:24;11.35;;;5.32;;
75152;SDS011;63734;45.218;36.708;2022-11-20T01:00:53;9.52;;;4.40;;
75152;SDS011;63734;45.218;36.708;2022-11-20T01:03:32;4.00;;;2.75;;
75152;SDS011;63734;45.218;36.708;2022-11-20T01:06:03;5.03;;;3.35;;
75152;SDS011;63734;45.218;36.708;2022-11-20T01:08:32;8.40;;;3.88;;
75152;SDS011;63734;45.218;36.708;2022-11-20T01:11:03;3.42;;;2.90;;
75152;SDS011;63734;45.218;36.708;2022-11-20T01:13:32;10.93;;;4.25;;
75152;SDS011;63734;45.218;36.708;2022-11-20T01:16:05;4.70;;;3.15;;
75152;SDS011;63734;45.218;36.708;2022-11-20T01:18:51;6.40;;;3.92;;
75152;SDS011;63734;45.218;36.708;2022-11-20T01:21:20;8.20;;;4.90;;
75152;SDS011;63734;45.218;36.708;2022-11-20T01:23:51;7.18;;;4.55;;
75152;SDS011;63734;45.218;36.708;2022-11-20T01:26:22;5.70;;;3.35;;
75152;SDS011;63734;45.218;36.708;2022-11-20T01:28:49;7.60;;;4.72;;
75152;SDS011;63734;45.218;36.708;2022-11-20T01:31:23;11.07;;;5.45;;
75152;SDS011;63734;45.218;36.708;2022-11-20T01:33:55;7.82;;;4.20;;
75152;SDS011;63734;45.218;36.708;2022-11-20T01:36:23;5.47;;;3.45;;
75152;SDS011;63734;45.218;36.708;2022-11-20T01:38:51;10.85;;;6.70;;
75152;SDS011;63734;45.218;36.708;2022-11-20T01:41:22;6.68;;;4.10;;
75152;SDS011;63734;45.218;36.708;2022-11-20T01:44:09;10.65;;;6.07;;
75152;SDS011;63734;45.218;36.708;2022-11-20T01:46:40;7.20;;;3.30;;
75152;SDS011;63734;45.218;36.708;2022-11-20T01:49:24;8.90;;;5.78;;
75152;SDS011;63734;45.218;36.708;2022-11-20T01:52:00;10.70;;;4.93;;
75152;SDS011;63734;45.218;36.708;2022-11-20T01:54:37;6.88;;;3.85;;
75152;SDS011;63734;45.218;36.708;2022-11-20T01:57:09;10.60;;;6.28;;
75152;SDS011;63734;45.218;36.708;2022-11-20T01:59:40;11.88;;;5.82;;
75152;SDS011;63734;45.218;36.708;2022-11-20T02:02:18;8.45;;;5.15;;
75152;SDS011;63734;45.218;36.708;2022-11-20T02:04:44;8.93;;;5.07;;
75152;SDS011;63734;45.218;36.708;2022-11-20T02:07:11;15.02;;;5.55;;
75152;SDS011;63734;45.218;36.708;2022-11-20T02:09:37;9.30;;;5.45;;
75152;SDS011;63734;45.218;36.708;2022-11-20T02:12:03;13.82;;;5.53;;
75152;SDS011;63734;45.218;36.708;2022-11-20T02:14:29;12.30;;;4.82;;
75152;SDS011;63734;45.218;36.708;2022-11-20T02:16:55;10.18;;;4.93;;
75152;SDS011;63734;45.218;36.708;2022-11-20T02:19:24;9.13;;;4.90;;
75152;SDS011;63734;45.218;36.708;2022-11-20T02:24:37;13.35;;;6.45;;
75152;SDS011;63734;45.218;36.708;2022-11-20T02:27:12;8.48;;;5.35;;
75152;SDS011;63734;45.218;36.708;2022-11-20T02:29:48;13.60;;;6.38;;
75152;SDS011;63734;45.218;36.708;2022-11-20T02:32:18;8.43;;;4.78;;
75152;SDS011;63734;45.218;36.708;2022-11-20T02:34:48;14.85;;;3.50;;
75152;SDS011;63734;45.218;36.708;2022-11-20T02:37:14;6.20;;;3.95;;
75152;SDS011;63734;45.218;36.708;2022-11-20T02:39:41;10.00;;;5.30;;
75152;SDS011;63734;45.218;36.708;2022-11-20T02:42:08;9.43;;;5.07;;
75152;SDS011;63734;45.218;36.708;2022-11-20T02:44:34;8.98;;;5.18;;
75152;SDS011;63734;45.218;36.708;2022-11-20T02:47:00;5.18;;;3.45;;
75152;SDS011;63734;45.218;36.708;2022-11-20T02:49:26;8.65;;;4.60;;
75152;SDS011;63734;45.218;36.708;2022-11-20T02:51:52;6.55;;;3.85;;
75152;SDS011;63734;45.218;36.708;2022-11-20T02:54:17;13.02;;;5.13;;
75152;SDS011;63734;45.218;36.708;2022-11-20T02:56:43;3.95;;;3.00;;
75152;SDS011;63734;45.218;36.708;2022-11-20T02:59:09;8.35;;;4.70;;
75152;SDS011;63734;45.218;36.708;2022-11-20T03:01:35;7.43;;;3.60;;
75152;SDS011;63734;45.218;36.708;2022-11-20T03:04:02;4.72;;;3.33;;
75152;SDS011;63734;45.218;36.708;2022-11-20T03:06:28;8.70;;;5.05;;
75152;SDS011;63734;45.218;36.708;2022-11-20T03:08:54;10.25;;;5.85;;
75152;SDS011;63734;45.218;36.708;2022-11-20T03:11:20;6.78;;;4.40;;
75152;SDS011;63734;45.218;36.708;2022-11-20T03:13:46;7.30;;;4.07;;
75152;SDS011;63734;45.218;36.708;2022-11-20T03:16:16;7.53;;;4.70;;
75152;SDS011;63734;45.218;36.708;2022-11-20T03:18:44;5.50;;;4.53;;
75152;SDS011;63734;45.218;36.708;2022-11-20T03:21:11;7.75;;;5.07;;
75152;SDS011;63734;45.218;36.708;2022-11-20T03:23:38;11.32;;;4.40;;
75152;SDS011;63734;45.218;36.708;2022-11-20T03:28:38;8.45;;;4.63;;
75152;SDS011;63734;45.218;36.708;2022-11-20T03:31:05;13.30;;;6.20;;
75152;SDS011;63734;45.218;36.708;2022-11-20T03:33:32;11.57;;;6.57;;
75152;SDS011;63734;45.218;36.708;2022-11-20T03:36:02;13.63;;;6.38;;
75152;SDS011;63734;45.218;36.708;2022-11-20T03:38:29;11.18;;;6.03;;
75152;SDS011;63734;45.218;36.708;2022-11-20T03:41:00;11.25;;;4.65;;
75152;SDS011;63734;45.218;36.708;2022-11-20T03:43:28;8.35;;;5.20;;
75152;SDS011;63734;45.218;36.708;2022-11-20T03:45:54;14.73;;;6.80;;
75152;SDS011;63734;45.218;36.708;2022-11-20T03:48:20;11.65;;;6.10;;
75152;SDS011;63734;45.218;36.708;2022-11-20T03:50:46;9.10;;;4.57;;
75152;SDS011;63734;45.218;36.708;2022-11-20T03:53:16;9.57;;;6.15;;
75152;SDS011;63734;45.218;36.708;2022-11-20T03:55:42;13.38;;;6.60;;
75152;SDS011;63734;45.218;36.708;2022-11-20T03:58:08;10.75;;;5.10;;
75152;SDS011;63734;45.218;36.708;2022-11-20T04:00:35;10.48;;;5.82;;
75152;SDS011;63734;45.218;36.708;2022-11-20T04:03:01;20.38;;;8.13;;
75152;SDS011;63734;45.218;36.708;2022-11-20T04:05:28;17.98;;;7.57;;
75152;SDS011;63734;45.218;36.708;2022-11-20T04:07:54;16.60;;;6.90;;
75152;SDS011;63734;45.218;36.708;2022-11-20T04:10:20;9.30;;;5.57;;
75152;SDS011;63734;45.218;36.708;2022-11-20T04:12:46;18.02;;;8.68;;
75152;SDS011;63734;45.218;36.708;2022-11-20T04:15:11;5.32;;;3.88;;
75152;SDS011;63734;45.218;36.708;2022-11-20T04:17:37;13.18;;;6.25;;
75152;SDS011;63734;45.218;36.708;2022-11-20T04:20:03;11.63;;;6.82;;
75152;SDS011;63734;45.218;36.708;2022-11-20T04:22:29;13.02;;;6.95;;
75152;SDS011;63734;45.218;36.708;2022-11-20T04:24:55;15.45;;;7.22;;
75152;SDS011;63734;45.218;36.708;2022-11-20T04:27:21;11.70;;;7.03;;
75152;SDS011;63734;45.218;36.708;2022-11-20T04:29:47;11.93;;;5.68;;
75152;SDS011;63734;45.218;36.708;2022-11-20T04:32:13;13.93;;;6.03;;
75152;SDS011;63734;45.218;36.708;2022-11-20T04:34:39;7.82;;;4.93;;
75152;SDS011;63734;45.218;36.708;2022-11-20T04:37:05;13.27;;;7.55;;
75152;SDS011;63734;45.218;36.708;2022-11-20T04:39:30;14.38;;;7.30;;
75152;SDS011;63734;45.218;36.708;2022-11-20T04:41:56;18.33;;;8.15;;
75152;SDS011;63734;45.218;36.708;2022-11-20T04:44:41;16.52;;;7.18;;
75152;SDS011;63734;45.218;36.708;2022-11-20T04:47:06;18.25;;;9.00;;
75152;SDS011;63734;45.218;36.708;2022-11-20T04:49:32;12.63;;;6.85;;
75152;SDS011;63734;45.218;36.708;2022-11-20T04:51:59;13.00;;;6.35;;
75152;SDS011;63734;45.218;36.708;2022-11-20T04:54:25;11.50;;;7.32;;
75152;SDS011;63734;45.218;36.708;2022-11-20T04:56:51;18.73;;;8.30;;
75152;SDS011;63734;45.218;36.708;2022-11-20T04:59:17;14.70;;;7.63;;
75152;SDS011;63734;45.218;36.708;2022-11-20T05:01:42;14.05;;;7.45;;
75152;SDS011;63734;45.218;36.708;2022-11-20T05:04:08;13.35;;;7.03;;
75152;SDS011;63734;45.218;36.708;2022-11-20T05:06:34;15.65;;;6.78;;
75152;SDS011;63734;45.218;36.708;2022-11-20T05:09:00;13.10;;;5.78;;
75152;SDS011;63734;45.218;36.708;2022-11-20T05:11:27;16.90;;;7.47;;
75152;SDS011;63734;45.218;36.708;2022-11-20T05:13:57;10.93;;;6.95;;
75152;SDS011;63734;45.218;36.708;2022-11-20T05:16:24;11.75;;;7.13;;
75152;SDS011;63734;45.218;36.708;2022-11-20T05:18:51;13.07;;;8.30;;
75152;SDS011;63734;45.218;36.708;2022-11-20T05:21:18;16.55;;;8.07;;
75152;SDS011;63734;45.218;36.708;2022-11-20T05:23:44;15.25;;;8.40;;
75152;SDS011;63734;45.218;36.708;2022-11-20T05:26:15;19.63;;;8.18;;
75152;SDS011;63734;45.218;36.708;2022-11-20T05:28:43;18.40;;;8.60;;
75152;SDS011;63734;45.218;36.708;2022-11-20T05:31:16;12.05;;;5.93;;
75152;SDS011;63734;45.218;36.708;2022-11-20T05:33:44;11.27;;;5.10;;
75152;SDS011;63734;45.218;36.708;2022-11-20T05:36:11;9.23;;;4.88;;
75152;SDS011;63734;45.218;36.708;2022-11-20T05:38:40;23.13;;;8.48;;
75152;SDS011;63734;45.218;36.708;2022-11-20T05:41:08;8.73;;;4.55;;
75152;SDS011;63734;45.218;36.708;2022-11-20T05:43:39;13.88;;;6.75;;
75152;SDS011;63734;45.218;36.708;2022-11-20T05:46:06;12.75;;;6.55;;
75152;SDS011;63734;45.218;36.708;2022-11-20T05:48:34;12.35;;;6.53;;
75152;SDS011;63734;45.218;36.708;2022-11-20T05:51:01;10.07;;;6.05;;
75152;SDS011;63734;45.218;36.708;2022-11-20T05:53:28;14.73;;;6.85;;
75152;SDS011;63734;45.218;36.708;2022-11-20T05:56:01;17.27;;;6.35;;
75152;SDS011;63734;45.218;36.708;2022-11-20T05:58:35;11.48;;;6.50;;
75152;SDS011;63734;45.218;36.708;2022-11-20T06:03:48;20.25;;;9.60;;
75152;SDS011;63734;45.218;36.708;2022-11-20T06:06:16;15.38;;;8.50;;
75152;SDS011;63734;45.218;36.708;2022-11-20T06:08:43;24.52;;;10.07;;
75152;SDS011;63734;45.218;36.708;2022-11-20T06:11:11;17.92;;;7.47;;
75152;SDS011;63734;45.218;36.708;2022-11-20T06:13:38;13.82;;;6.97;;
75152;SDS011;63734;45.218;36.708;2022-11-20T06:16:04;13.82;;;5.13;;
75152;SDS011;63734;45.218;36.708;2022-11-20T06:18:31;22.90;;;9.98;;
75152;SDS011;63734;45.218;36.708;2022-11-20T06:21:01;14.18;;;7.07;;
75152;SDS011;63734;45.218;36.708;2022-11-20T06:23:31;12.07;;;6.82;;
75152;SDS011;63734;45.218;36.708;2022-11-20T06:26:05;15.65;;;5.72;;
75152;SDS011;63734;45.218;36.708;2022-11-20T06:28:33;11.45;;;7.53;;
75152;SDS011;63734;45.218;36.708;2022-11-20T06:30:59;17.15;;;7.93;;
75152;SDS011;63734;45.218;36.708;2022-11-20T06:33:25;21.38;;;9.85;;
75152;SDS011;63734;45.218;36.708;2022-11-20T06:35:51;16.33;;;7.10;;
75152;SDS011;63734;45.218;36.708;2022-11-20T06:38:17;19.33;;;7.68;;
75152;SDS011;63734;45.218;36.708;2022-11-20T06:40:43;12.63;;;6.47;;
75152;SDS011;63734;45.218;36.708;2022-11-20T06:43:09;11.77;;;6.93;;
75152;SDS011;63734;45.218;36.708;2022-11-20T06:45:36;14.80;;;7.95;;
75152;SDS011;63734;45.218;36.708;2022-11-20T06:48:02;11.10;;;5.95;;
75152;SDS011;63734;45.218;36.708;2022-11-20T06:50:28;12.63;;;7.80;;
75152;SDS011;63734;45.218;36.708;2022-11-20T06:52:54;21.80;;;9.63;;
75152;SDS011;63734;45.218;36.708;2022-11-20T06:55:21;11.65;;;6.07;;
75152;SDS011;63734;45.218;36.708;2022-11-20T06:57:47;16.25;;;8.55;;
75152;SDS011;63734;45.218;36.708;2022-11-20T07:00:13;30.08;;;12.00;;
75152;SDS011;63734;45.218;36.708;2022-11-20T07:02:39;14.05;;;7.40;;
75152;SDS011;63734;45.218;36.708;2022-11-20T07:05:06;20.48;;;9.18;;
75152;SDS011;63734;45.218;36.708;2022-11-20T07:07:32;14.32;;;6.82;;
75152;SDS011;63734;45.218;36.708;2022-11-20T07:09:58;22.10;;;9.80;;
75152;SDS011;63734;45.218;36.708;2022-11-20T07:12:24;24.75;;;12.02;;
75152;SDS011;63734;45.218;36.708;2022-11-20T07:14:51;18.05;;;8.68;;
75152;SDS011;63734;45.218;36.708;2022-11-20T07:17:17;19.10;;;9.48;;
75152;SDS011;63734;45.218;36.708;2022-11-20T07:19:43;22.75;;;8.95;;
75152;SDS011;63734;45.218;36.708;2022-11-20T07:22:09;22.70;;;10.52;;
75152;SDS011;63734;45.218;36.708;2022-11-20T07:24:35;22.02;;;9.07;;
75152;SDS011;63734;45.218;36.708;2022-11-20T07:27:02;31.73;;;13.25;;
75152;SDS011;63734;45.218;36.708;2022-11-20T07:29:28;18.40;;;7.82;;
75152;SDS011;63734;45.218;36.708;2022-11-20T07:31:54;38.45;;;15.35;;
75152;SDS011;63734;45.218;36.708;2022-11-20T07:34:22;35.55;;;13.65;;
75152;SDS011;63734;45.218;36.708;2022-11-20T07:36:48;25.92;;;12.00;;
75152;SDS011;63734;45.218;36.708;2022-11-20T07:39:16;35.03;;;12.95;;
75152;SDS011;63734;45.218;36.708;2022-11-20T07:41:42;29.02;;;11.35;;
75152;SDS011;63734;45.218;36.708;2022-11-20T07:44:10;44.15;;;12.75;;
75152;SDS011;63734;45.218;36.708;2022-11-20T07:46:36;35.38;;;15.25;;
75152;SDS011;63734;45.218;36.708;2022-11-20T07:49:02;28.13;;;12.63;;
75152;SDS011;63734;45.218;36.708;2022-11-20T07:51:28;32.70;;;12.80;;
75152;SDS011;63734;45.218;36.708;2022-11-20T07:53:54;23.73;;;11.30;;
75152;SDS011;63734;45.218;36.708;2022-11-20T07:56:20;40.30;;;13.90;;
75152;SDS011;63734;45.218;36.708;2022-11-20T07:58:46;25.73;;;12.55;;
75152;SDS011;63734;45.218;36.708;2022-11-20T08:01:13;33.60;;;13.48;;
75152;SDS011;63734;45.218;36.708;2022-11-20T08:03:39;34.95;;;15.85;;
75152;SDS011;63734;45.218;36.708;2022-11-20T08:06:05;31.83;;;15.00;;
75152;SDS011;63734;45.218;36.708;2022-11-20T08:08:31;24.13;;;11.05;;
75152;SDS011;63734;45.218;36.708;2022-11-20T08:10:57;23.48;;;13.45;;
75152;SDS011;63734;45.218;36.708;2022-11-20T08:13:41;24.40;;;14.00;;
75152;SDS011;63734;45.218;36.708;2022-11-20T08:16:26;14.32;;;7.57;;
75152;SDS011;63734;45.218;36.708;2022-11-20T08:18:52;20.13;;;10.15;;
75152;SDS011;63734;45.218;36.708;2022-11-20T08:21:18;14.52;;;8.43;;
75152;SDS011;63734;45.218;36.708;2022-11-20T08:23:43;14.23;;;8.23;;
75152;SDS011;63734;45.218;36.708;2022-11-20T08:26:09;16.38;;;9.40;;
75152;SDS011;63734;45.218;36.708;2022-11-20T08:28:35;12.85;;;8.35;;
75152;SDS011;63734;45.218;36.708;2022-11-20T08:31:02;17.17;;;9.27;;
75152;SDS011;63734;45.218;36.708;2022-11-20T08:33:29;20.58;;;8.60;;
75152;SDS011;63734;45.218;36.708;2022-11-20T08:36:04;19.02;;;8.73;;
75152;SDS011;63734;45.218;36.708;2022-11-20T08:38:31;15.23;;;6.85;;
75152;SDS011;63734;45.218;36.708;2022-11-20T08:40:58;13.50;;;8.52;;
75152;SDS011;63734;45.218;36.708;2022-11-20T08:43:44;16.70;;;7.40;;
75152;SDS011;63734;45.218;36.708;2022-11-20T08:46:10;14.77;;;6.82;;
75152;SDS011;63734;45.218;36.708;2022-11-20T08:48:36;10.73;;;7.03;;
75152;SDS011;63734;45.218;36.708;2022-11-20T08:51:03;14.40;;;9.18;;
75152;SDS011;63734;45.218;36.708;2022-11-20T08:53:29;14.95;;;7.15;;
75152;SDS011;63734;45.218;36.708;2022-11-20T08:55:58;13.38;;;8.90;;
75152;SDS011;63734;45.218;36.708;2022-11-20T08:58:24;13.85;;;6.47;;
75152;SDS011;63734;45.218;36.708;2022-11-20T09:00:51;13.20;;;8.30;;
75152;SDS011;63734;45.218;36.708;2022-11-20T09:03:17;15.38;;;10.38;;
75152;SDS011;63734;45.218;36.708;2022-11-20T09:05:43;14.32;;;9.32;;
75152;SDS011;63734;45.218;36.708;2022-11-20T09:08:10;11.40;;;6.72;;
75152;SDS011;63734;45.218;36.708;2022-11-20T09:10:36;12.35;;;8.82;;
75152;SDS011;63734;45.218;36.708;2022-11-20T09:13:04;13.23;;;7.03;;
75152;SDS011;63734;45.218;36.708;2022-11-20T09:15:30;10.52;;;8.02;;
75152;SDS011;63734;45.218;36.708;2022-11-20T09:18:00;13.13;;;8.55;;
75152;SDS011;63734;45.218;36.708;2022-11-20T09:20:29;13.82;;;8.40;;
75152;SDS011;63734;45.218;36.708;2022-11-20T09:22:55;14.45;;;11.10;;
75152;SDS011;63734;45.218;36.708;2022-11-20T09:25:22;13.27;;;7.18;;
75152;SDS011;63734;45.218;36.708;2022-11-20T09:27:54;14.60;;;8.98;;
75152;SDS011;63734;45.218;36.708;2022-11-20T09:30:25;16.88;;;9.25;;
75152;SDS011;63734;45.218;36.708;2022-11-20T09:32:52;12.77;;;7.38;;
75152;SDS011;63734;45.218;36.708;2022-11-20T09:35:18;12.32;;;7.35;;
75152;SDS011;63734;45.218;36.708;2022-11-20T09:37:44;11.52;;;7.90;;
75152;SDS011;63734;45.218;36.708;2022-11-20T09:40:20;14.20;;;9.63;;
75152;SDS011;63734;45.218;36.708;2022-11-20T09:47:58;12.27;;;8.15;;
75152;SDS011;63734;45.218;36.708;2022-11-20T09:50:45;11.43;;;8.02;;
75152;SDS011;63734;45.218;36.708;2022-11-20T09:56:33;14.48;;;7.35;;
75152;SDS011;63734;45.218;36.708;2022-11-20T09:59:02;16.17;;;8.85;;
75152;SDS011;63734;45.218;36.708;2022-11-20T10:01:32;10.32;;;7.18;;
75152;SDS011;63734;45.218;36.708;2022-11-20T10:09:30;11.10;;;6.63;;
75152;SDS011;63734;45.218;36.708;2022-11-20T10:14:38;12.00;;;6.28;;
75152;SDS011;63734;45.218;36.708;2022-11-20T10:20:28;15.52;;;8.27;;
75152;SDS011;63734;45.218;36.708;2022-11-20T10:25:29;12.40;;;7.07;;
75152;SDS011;63734;45.218;36.708;2022-11-20T10:30:30;10.95;;;6.97;;
75152;SDS011;63734;45.218;36.708;2022-11-20T10:33:04;14.55;;;7.47;;
75152;SDS011;63734;45.218;36.708;2022-11-20T10:35:39;11.65;;;5.90;;
75152;SDS011;63734;45.218;36.708;2022-11-20T10:38:54;45.38;;;9.50;;
75152;SDS011;63734;45.218;36.708;2022-11-20T10:41:20;14.32;;;7.72;;
75152;SDS011;63734;45.218;36.708;2022-11-20T10:43:59;18.45;;;6.78;;
75152;SDS011;63734;45.218;36.708;2022-11-20T10:47:19;15.82;;;7.85;;
75152;SDS011;63734;45.218;36.708;2022-11-20T10:49:47;19.70;;;11.30;;
75152;SDS011;63734;45.218;36.708;2022-11-20T10:55:56;16.80;;;9.40;;
75152;SDS011;63734;45.218;36.708;2022-11-20T10:58:10;12.77;;;8.10;;
75152;SDS011;63734;45.218;36.708;2022-11-20T11:00:42;13.07;;;7.45;;
75152;SDS011;63734;45.218;36.708;2022-11-20T11:03:27;16.27;;;8.63;;
75152;SDS011;63734;45.218;36.708;2022-11-20T11:08:40;15.68;;;8.48;;
75152;SDS011;63734;45.218;36.708;2022-11-20T11:14:14;16.65;;;7.65;;
75152;SDS011;63734;45.218;36.708;2022-11-20T11:16:54;13.18;;;7.38;;
75152;SDS011;63734;45.218;36.708;2022-11-20T11:19:22;19.13;;;8.73;;
75152;SDS011;63734;45.218;36.708;2022-11-20T11:21:50;16.80;;;8.07;;
75152;SDS011;63734;45.218;36.708;2022-11-20T11:24:28;16.73;;;7.07;;
75152;SDS011;63734;45.218;36.708;2022-11-20T11:27:00;13.52;;;8.60;;
75152;SDS011;63734;45.218;36.708;2022-11-20T11:29:32;16.35;;;8.52;;
75152;SDS011;63734;45.218;36.708;2022-11-20T11:32:10;17.08;;;8.90;;
75152;SDS011;63734;45.218;36.708;2022-11-20T11:34:38;17.23;;;8.07;;
75152;SDS011;63734;45.218;36.708;2022-11-20T11:37:04;13.82;;;6.93;;
75152;SDS011;63734;45.218;36.708;2022-11-20T11:39:43;11.05;;;6.38;;
75152;SDS011;63734;45.218;36.708;2022-11-20T11:42:12;14.57;;;8.10;;
75152;SDS011;63734;45.218;36.708;2022-11-20T11:44:46;16.00;;;7.63;;
75152;SDS011;63734;45.218;36.708;2022-11-20T11:58:38;13.15;;;6.68;;
75152;SDS011;63734;45.218;36.708;2022-11-20T12:07:00;15.65;;;9.07;;
75152;SDS011;63734;45.218;36.708;2022-11-20T12:09:37;17.63;;;9.07;;
75152;SDS011;63734;45.218;36.708;2022-11-20T12:12:10;19.85;;;11.55;;
75152;SDS011;63734;45.218;36.708;2022-11-20T12:14:42;14.40;;;7.63;;
75152;SDS011;63734;45.218;36.708;2022-11-20T12:17:11;18.38;;;9.00;;
75152;SDS011;63734;45.218;36.708;2022-11-20T12:19:39;15.52;;;9.00;;
75152;SDS011;63734;45.218;36.708;2022-11-20T12:25:10;22.15;;;9.52;;
75152;SDS011;63734;45.218;36.708;2022-11-20T12:28:25;13.40;;;7.93;;
75152;SDS011;63734;45.218;36.708;2022-11-20T12:30:45;19.85;;;11.82;;
75152;SDS011;63734;45.218;36.708;2022-11-20T12:38:51;17.08;;;9.13;;
75152;SDS011;63734;45.218;36.708;2022-11-20T12:56:43;18.10;;;8.88;;
75152;SDS011;63734;45.218;36.708;2022-11-20T13:07:19;20.85;;;8.13;;
75152;SDS011;63734;45.218;36.708;2022-11-20T13:09:47;19.58;;;9.85;;
75152;SDS011;63734;45.218;36.708;2022-11-20T13:12:29;15.60;;;6.95;;
75152;SDS011;63734;45.218;36.708;2022-11-20T13:17:54;26.13;;;11.35;;
75152;SDS011;63734;45.218;36.708;2022-11-20T13:20:26;17.05;;;9.13;;
75152;SDS011;63734;45.218;36.708;2022-11-20T13:22:54;19.10;;;9.02;;
75152;SDS011;63734;45.218;36.708;2022-11-20T13:27:56;18.05;;;9.32;;
75152;SDS011;63734;45.218;36.708;2022-11-20T13:30:26;19.42;;;9.40;;
75152;SDS011;63734;45.218;36.708;2022-11-20T13:32:54;16.95;;;8.38;;
75152;SDS011;63734;45.218;36.708;2022-11-20T13:35:32;18.00;;;8.70;;
75152;SDS011;63734;45.218;36.708;2022-11-20T13:38:06;20.20;;;9.25;;
75152;SDS011;63734;45.218;36.708;2022-11-20T13:40:39;23.85;;;9.48;;
75152;SDS011;63734;45.218;36.708;2022-11-20T13:43:32;21.00;;;9.63;;
75152;SDS011;63734;45.218;36.708;2022-11-20T13:46:03;17.58;;;8.57;;
75152;SDS011;63734;45.218;36.708;2022-11-20T13:48:32;18.70;;;11.75;;
75152;SDS011;63734;45.218;36.708;2022-11-20T13:59:38;17.92;;;9.70;;
75152;SDS011;63734;45.218;36.708;2022-11-20T14:02:13;18.70;;;9.48;;
75152;SDS011;63734;45.218;36.708;2022-11-20T14:05:02;22.02;;;10.38;;
75152;SDS011;63734;45.218;36.708;2022-11-20T14:07:37;19.98;;;10.02;;
75152;SDS011;63734;45.218;36.708;2022-11-20T14:10:18;26.50;;;11.05;;
75152;SDS011;63734;45.218;36.708;2022-11-20T14:12:54;20.95;;;10.07;;
75152;SDS011;63734;45.218;36.708;2022-11-20T14:15:28;22.52;;;9.55;;
75152;SDS011;63734;45.218;36.708;2022-11-20T14:17:59;18.63;;;9.27;;
75152;SDS011;63734;45.218;36.708;2022-11-20T14:20:37;16.92;;;9.95;;
75152;SDS011;63734;45.218;36.708;2022-11-20T14:23:04;15.63;;;9.07;;
75152;SDS011;63734;45.218;36.708;2022-11-20T14:25:35;20.63;;;8.35;;
75152;SDS011;63734;45.218;36.708;2022-11-20T14:28:02;25.35;;;10.25;;
75152;SDS011;63734;45.218;36.708;2022-11-20T14:30:38;13.05;;;7.38;;
75152;SDS011;63734;45.218;36.708;2022-11-20T14:33:09;32.45;;;9.20;;
75152;SDS011;63734;45.218;36.708;2022-11-20T14:35:40;21.27;;;9.65;;
75152;SDS011;63734;45.218;36.708;2022-11-20T14:38:15;26.30;;;10.45;;
75152;SDS011;63734;45.218;36.708;2022-11-20T14:40:43;23.48;;;9.52;;
75152;SDS011;63734;45.218;36.708;2022-11-20T14:43:26;20.65;;;9.38;;
75152;SDS011;63734;45.218;36.708;2022-11-20T14:45:58;18.50;;;9.23;;
75152;SDS011;63734;45.218;36.708;2022-11-20T14:48:34;19.45;;;9.40;;
75152;SDS011;63734;45.218;36.708;2022-11-20T14:51:04;28.05;;;11.10;;
75152;SDS011;63734;45.218;36.708;2022-11-20T14:53:30;26.02;;;11.52;;
75152;SDS011;63734;45.218;36.708;2022-11-20T14:56:00;22.98;;;10.32;;
75152;SDS011;63734;45.218;36.708;2022-11-20T14:58:29;20.23;;;8.95;;
75152;SDS011;63734;45.218;36.708;2022-11-20T15:01:04;19.75;;;9.93;;
75152;SDS011;63734;45.218;36.708;2022-11-20T15:03:33;23.23;;;9.37;;
75152;SDS011;63734;45.218;36.708;2022-11-20T15:06:05;17.67;;;9.43;;
75152;SDS011;63734;45.218;36.708;2022-11-20T15:08:32;20.60;;;9.00;;
75152;SDS011;63734;45.218;36.708;2022-11-20T15:10:58;27.80;;;11.85;;
75152;SDS011;63734;45.218;36.708;2022-11-20T15:13:37;24.60;;;10.13;;
75152;SDS011;63734;45.218;36.708;2022-11-20T15:16:17;21.65;;;10.63;;
75152;SDS011;63734;45.218;36.708;2022-11-20T15:18:44;21.40;;;10.00;;
75152;SDS011;63734;45.218;36.708;2022-11-20T15:21:11;23.80;;;9.98;;
75152;SDS011;63734;45.218;36.708;2022-11-20T15:23:39;18.25;;;10.07;;
75152;SDS011;63734;45.218;36.708;2022-11-20T15:26:06;28.35;;;11.57;;
75152;SDS011;63734;45.218;36.708;2022-11-20T15:31:04;12.10;;;6.53;;
75152;SDS011;63734;45.218;36.708;2022-11-20T15:33:31;23.20;;;10.07;;
75152;SDS011;63734;45.218;36.708;2022-11-20T15:35:59;23.50;;;10.35;;
75152;SDS011;63734;45.218;36.708;2022-11-20T15:38:26;21.65;;;9.30;;
75152;SDS011;63734;45.218;36.708;2022-11-20T15:40:52;21.85;;;8.55;;
75152;SDS011;63734;45.218;36.708;2022-11-20T15:43:18;22.50;;;9.80;;
75152;SDS011;63734;45.218;36.708;2022-11-20T15:45:44;28.08;;;11.45;;
75152;SDS011;63734;45.218;36.708;2022-11-20T15:48:12;21.05;;;10.18;;
75152;SDS011;63734;45.218;36.708;2022-11-20T15:51:03;26.05;;;11.05;;
75152;SDS011;63734;45.218;36.708;2022-11-20T15:53:32;26.38;;;10.70;;
75152;SDS011;63734;45.218;36.708;2022-11-20T15:55:57;19.48;;;10.02;;
75152;SDS011;63734;45.218;36.708;2022-11-20T15:58:23;27.77;;;10.35;;
75152;SDS011;63734;45.218;36.708;2022-11-20T16:00:50;22.20;;;10.02;;
75152;SDS011;63734;45.218;36.708;2022-11-20T16:03:16;20.70;;;9.90;;
75152;SDS011;63734;45.218;36.708;2022-11-20T16:05:43;25.42;;;10.65;;
75152;SDS011;63734;45.218;36.708;2022-11-20T16:08:09;25.00;;;11.13;;
75152;SDS011;63734;45.218;36.708;2022-11-20T16:10:36;20.08;;;9.70;;
75152;SDS011;63734;45.218;36.708;2022-11-20T16:13:02;24.48;;;10.60;;
75152;SDS011;63734;45.218;36.708;2022-11-20T16:15:50;21.15;;;10.02;;
75152;SDS011;63734;45.218;36.708;2022-11-20T16:18:21;21.85;;;9.80;;
75152;SDS011;63734;45.218;36.708;2022-11-20T16:20:50;20.75;;;11.48;;
75152;SDS011;63734;45.218;36.708;2022-11-20T16:23:17;23.02;;;9.45;;
75152;SDS011;63734;45.218;36.708;2022-11-20T16:25:45;24.90;;;10.98;;
75152;SDS011;63734;45.218;36.708;2022-11-20T16:28:12;24.13;;;10.25;;